sensor_id;sensor_type;location;lat;lon;timestamp;temperature;humidity
41922;DHT22;27609;51.002;5.354;2023-05-16T00:01:09;11.40;99.90
41922;DHT22;27609;51.002;5.354;2023-05-16T00:03:35;11.30;99.90
41922;DHT22;27609;51.002;5.354;2023-05-16T00:06:03;11.20;99.90
41922;DHT22;27609;51.002;5.354;2023-05-16T00:08:30;11.20;99.90
41922;DHT22;27609;51.002;5.354;2023-05-16T00:10:56;11.40;99.90
41922;DHT22;27609;51.002;5.354;2023-05-16T00:13:21;11.40;99.90
41922;DHT22;27609;51.002;5.354;2023-05-16T00:15:53;11.40;99.90
41922;DHT22;27609;51.002;5.354;2023-05-16T00:18:21;11.30;99.90
41922;DHT22;27609;51.002;5.354;2023-05-16T00:20:48;11.40;99.90
41922;DHT22;27609;51.002;5.354;2023-05-16T00:23:14;11.40;99.90
41922;DHT22;27609;51.002;5.354;2023-05-16T00:25:40;11.40;99.90
41922;DHT22;27609;51.002;5.354;2023-05-16T00:28:06;11.40;99.90
41922;DHT22;27609;51.002;5.354;2023-05-16T00:30:33;11.30;99.90
41922;DHT22;27609;51.002;5.354;2023-05-16T00:32:59;11.40;99.90
41922;DHT22;27609;51.002;5.354;2023-05-16T00:35:24;11.20;99.90
41922;DHT22;27609;51.002;5.354;2023-05-16T00:37:50;11.10;99.90
41922;DHT22;27609;51.002;5.354;2023-05-16T00:40:16;11.00;99.90
41922;DHT22;27609;51.002;5.354;2023-05-16T00:42:42;11.10;99.90
41922;DHT22;27609;51.002;5.354;2023-05-16T00:45:08;11.20;99.90
41922;DHT22;27609;51.002;5.354;2023-05-16T00:47:35;11.10;99.90
41922;DHT22;27609;51.002;5.354;2023-05-16T00:50:01;11.20;99.90
41922;DHT22;27609;51.002;5.354;2023-05-16T00:52:28;11.10;99.90
41922;DHT22;27609;51.002;5.354;2023-05-16T00:54:56;11.10;99.90
41922;DHT22;27609;51.002;5.354;2023-05-16T00:57:21;11.10;99.90
41922;DHT22;27609;51.002;5.354;2023-05-16T00:59:48;11.00;99.90
41922;DHT22;27609;51.002;5.354;2023-05-16T01:02:14;10.90;99.90
41922;DHT22;27609;51.002;5.354;2023-05-16T01:04:40;10.80;99.90
41922;DHT22;27609;51.002;5.354;2023-05-16T01:07:07;10.90;99.90
41922;DHT22;27609;51.002;5.354;2023-05-16T01:09:33;11.00;99.90
41922;DHT22;27609;51.002;5.354;2023-05-16T01:12:29;11.10;99.90
41922;DHT22;27609;51.002;5.354;2023-05-16T01:15:13;11.10;99.90
41922;DHT22;27609;51.002;5.354;2023-05-16T01:18:02;10.80;99.90
41922;DHT22;27609;51.002;5.354;2023-05-16T01:20:44;10.80;99.90
41922;DHT22;27609;51.002;5.354;2023-05-16T01:26:13;10.50;99.90
41922;DHT22;27609;51.002;5.354;2023-05-16T01:28:41;10.50;99.90
41922;DHT22;27609;51.002;5.354;2023-05-16T01:31:08;10.50;99.90
41922;DHT22;27609;51.002;5.354;2023-05-16T01:33:34;10.40;99.90
41922;DHT22;27609;51.002;5.354;2023-05-16T01:43:51;10.60;99.90
41922;DHT22;27609;51.002;5.354;2023-05-16T01:46:24;10.40;99.90
41922;DHT22;27609;51.002;5.354;2023-05-16T01:49:23;10.50;99.90
41922;DHT22;27609;51.002;5.354;2023-05-16T01:51:50;10.40;99.90
41922;DHT22;27609;51.002;5.354;2023-05-16T01:54:18;10.50;99.90
41922;DHT22;27609;51.002;5.354;2023-05-16T01:56:55;10.40;99.90
41922;DHT22;27609;51.002;5.354;2023-05-16T01:59:22;10.40;99.90
41922;DHT22;27609;51.002;5.354;2023-05-16T02:01:48;10.60;99.90
41922;DHT22;27609;51.002;5.354;2023-05-16T02:04:14;10.60;99.90
41922;DHT22;27609;51.002;5.354;2023-05-16T02:06:41;10.40;99.90
41922;DHT22;27609;51.002;5.354;2023-05-16T02:09:07;10.40;99.90
41922;DHT22;27609;51.002;5.354;2023-05-16T02:11:33;10.40;99.90
41922;DHT22;27609;51.002;5.354;2023-05-16T02:13:58;10.40;99.90
41922;DHT22;27609;51.002;5.354;2023-05-16T02:16:24;10.30;99.90
41922;DHT22;27609;51.002;5.354;2023-05-16T02:18:50;10.10;99.90
41922;DHT22;27609;51.002;5.354;2023-05-16T02:21:16;10.10;99.90
41922;DHT22;27609;51.002;5.354;2023-05-16T02:23:41;10.00;99.90
41922;DHT22;27609;51.002;5.354;2023-05-16T02:26:07;9.90;99.90
41922;DHT22;27609;51.002;5.354;2023-05-16T02:28:33;9.70;99.90
41922;DHT22;27609;51.002;5.354;2023-05-16T02:30:59;9.60;99.90
41922;DHT22;27609;51.002;5.354;2023-05-16T02:33:26;9.60;99.90
41922;DHT22;27609;51.002;5.354;2023-05-16T02:35:53;9.60;99.90
41922;DHT22;27609;51.002;5.354;2023-05-16T02:38:19;9.50;99.90
41922;DHT22;27609;51.002;5.354;2023-05-16T02:40:46;9.40;99.90
41922;DHT22;27609;51.002;5.354;2023-05-16T02:43:12;9.40;99.90
41922;DHT22;27609;51.002;5.354;2023-05-16T02:45:38;9.30;99.90
41922;DHT22;27609;51.002;5.354;2023-05-16T02:48:04;9.20;99.90
41922;DHT22;27609;51.002;5.354;2023-05-16T02:50:29;9.20;99.90
41922;DHT22;27609;51.002;5.354;2023-05-16T02:52:55;9.10;99.90
41922;DHT22;27609;51.002;5.354;2023-05-16T02:55:24;9.10;99.90
41922;DHT22;27609;51.002;5.354;2023-05-16T02:57:50;9.10;99.90
41922;DHT22;27609;51.002;5.354;2023-05-16T03:00:17;9.00;99.90
41922;DHT22;27609;51.002;5.354;2023-05-16T03:02:43;9.00;99.90
41922;DHT22;27609;51.002;5.354;2023-05-16T03:05:10;8.90;99.90
41922;DHT22;27609;51.002;5.354;2023-05-16T03:07:36;8.80;99.90
41922;DHT22;27609;51.002;5.354;2023-05-16T03:10:02;8.70;99.90
41922;DHT22;27609;51.002;5.354;2023-05-16T03:12:28;8.60;99.90
41922;DHT22;27609;51.002;5.354;2023-05-16T03:14:54;8.60;99.90
41922;DHT22;27609;51.002;5.354;2023-05-16T03:17:20;8.60;99.90
41922;DHT22;27609;51.002;5.354;2023-05-16T03:19:46;8.50;99.90
41922;DHT22;27609;51.002;5.354;2023-05-16T03:22:11;8.50;99.90
41922;DHT22;27609;51.002;5.354;2023-05-16T03:24:37;8.40;99.90
41922;DHT22;27609;51.002;5.354;2023-05-16T03:27:03;8.40;99.90
41922;DHT22;27609;51.002;5.354;2023-05-16T03:29:30;8.40;99.90
41922;DHT22;27609;51.002;5.354;2023-05-16T03:31:56;8.40;99.90
41922;DHT22;27609;51.002;5.354;2023-05-16T03:34:22;8.40;99.90
41922;DHT22;27609;51.002;5.354;2023-05-16T03:36:51;8.40;99.90
41922;DHT22;27609;51.002;5.354;2023-05-16T03:39:16;8.40;99.90
41922;DHT22;27609;51.002;5.354;2023-05-16T03:41:43;8.50;99.90
41922;DHT22;27609;51.002;5.354;2023-05-16T03:44:09;8.50;99.90
41922;DHT22;27609;51.002;5.354;2023-05-16T03:46:35;8.50;99.90
41922;DHT22;27609;51.002;5.354;2023-05-16T03:49:01;8.50;99.90
41922;DHT22;27609;51.002;5.354;2023-05-16T03:51:27;8.50;99.90
41922;DHT22;27609;51.002;5.354;2023-05-16T03:53:53;8.50;99.90
41922;DHT22;27609;51.002;5.354;2023-05-16T03:56:19;8.50;99.90
41922;DHT22;27609;51.002;5.354;2023-05-16T03:58:46;8.50;99.90
41922;DHT22;27609;51.002;5.354;2023-05-16T04:01:12;8.40;99.90
41922;DHT22;27609;51.002;5.354;2023-05-16T04:03:38;8.50;99.90
41922;DHT22;27609;51.002;5.354;2023-05-16T04:06:06;8.50;99.90
41922;DHT22;27609;51.002;5.354;2023-05-16T04:08:32;8.60;99.90
41922;DHT22;27609;51.002;5.354;2023-05-16T04:10:58;8.60;99.90
41922;DHT22;27609;51.002;5.354;2023-05-16T04:13:23;8.70;99.90
41922;DHT22;27609;51.002;5.354;2023-05-16T04:15:50;8.80;99.90
41922;DHT22;27609;51.002;5.354;2023-05-16T04:18:15;8.80;99.90
41922;DHT22;27609;51.002;5.354;2023-05-16T04:20:42;8.80;99.90
41922;DHT22;27609;51.002;5.354;2023-05-16T04:23:08;8.90;99.90
41922;DHT22;27609;51.002;5.354;2023-05-16T04:25:36;8.90;99.90
41922;DHT22;27609;51.002;5.354;2023-05-16T04:28:02;8.90;99.90
41922;DHT22;27609;51.002;5.354;2023-05-16T04:30:27;8.80;99.90
41922;DHT22;27609;51.002;5.354;2023-05-16T04:32:53;8.70;99.90
41922;DHT22;27609;51.002;5.354;2023-05-16T04:35:19;8.70;99.90
41922;DHT22;27609;51.002;5.354;2023-05-16T04:37:46;8.70;99.90
41922;DHT22;27609;51.002;5.354;2023-05-16T04:40:12;8.60;99.90
41922;DHT22;27609;51.002;5.354;2023-05-16T04:42:38;8.60;99.90
41922;DHT22;27609;51.002;5.354;2023-05-16T04:45:04;8.60;99.90
41922;DHT22;27609;51.002;5.354;2023-05-16T04:47:31;8.60;99.90
41922;DHT22;27609;51.002;5.354;2023-05-16T04:49:57;8.60;99.90
41922;DHT22;27609;51.002;5.354;2023-05-16T04:52:22;8.70;99.90
41922;DHT22;27609;51.002;5.354;2023-05-16T04:54:51;8.70;99.90
41922;DHT22;27609;51.002;5.354;2023-05-16T04:57:17;8.70;99.90
41922;DHT22;27609;51.002;5.354;2023-05-16T04:59:43;8.80;99.90
41922;DHT22;27609;51.002;5.354;2023-05-16T05:02:08;8.70;99.90
41922;DHT22;27609;51.002;5.354;2023-05-16T05:04:34;8.80;99.90
41922;DHT22;27609;51.002;5.354;2023-05-16T05:07:00;8.70;99.90
41922;DHT22;27609;51.002;5.354;2023-05-16T05:09:26;8.80;99.90
41922;DHT22;27609;51.002;5.354;2023-05-16T05:11:52;8.80;99.90
41922;DHT22;27609;51.002;5.354;2023-05-16T05:14:17;8.90;99.90
41922;DHT22;27609;51.002;5.354;2023-05-16T05:16:43;8.90;99.90
41922;DHT22;27609;51.002;5.354;2023-05-16T05:19:09;9.00;99.90
41922;DHT22;27609;51.002;5.354;2023-05-16T05:21:34;9.10;99.90
41922;DHT22;27609;51.002;5.354;2023-05-16T05:24:00;9.10;99.90
41922;DHT22;27609;51.002;5.354;2023-05-16T05:26:26;9.20;99.90
41922;DHT22;27609;51.002;5.354;2023-05-16T05:28:53;8.80;99.90
41922;DHT22;27609;51.002;5.354;2023-05-16T05:31:18;9.30;99.90
41922;DHT22;27609;51.002;5.354;2023-05-16T05:33:44;9.30;99.90
41922;DHT22;27609;51.002;5.354;2023-05-16T05:36:10;9.30;99.90
41922;DHT22;27609;51.002;5.354;2023-05-16T05:38:36;9.50;99.90
41922;DHT22;27609;51.002;5.354;2023-05-16T05:41:03;9.50;99.90
41922;DHT22;27609;51.002;5.354;2023-05-16T05:43:28;9.60;99.90
41922;DHT22;27609;51.002;5.354;2023-05-16T05:45:54;9.80;99.90
41922;DHT22;27609;51.002;5.354;2023-05-16T05:48:20;9.80;99.90
41922;DHT22;27609;51.002;5.354;2023-05-16T05:50:46;10.00;99.90
41922;DHT22;27609;51.002;5.354;2023-05-16T05:53:12;10.10;99.90
41922;DHT22;27609;51.002;5.354;2023-05-16T05:55:38;10.20;99.90
41922;DHT22;27609;51.002;5.354;2023-05-16T05:58:06;10.70;99.90
41922;DHT22;27609;51.002;5.354;2023-05-16T06:00:31;11.50;99.90
41922;DHT22;27609;51.002;5.354;2023-05-16T06:02:57;12.10;99.90
41922;DHT22;27609;51.002;5.354;2023-05-16T06:05:23;12.70;99.90
41922;DHT22;27609;51.002;5.354;2023-05-16T06:07:48;13.20;99.90
41922;DHT22;27609;51.002;5.354;2023-05-16T06:10:14;13.60;99.90
41922;DHT22;27609;51.002;5.354;2023-05-16T06:12:40;14.20;99.90
41922;DHT22;27609;51.002;5.354;2023-05-16T06:15:06;14.50;99.90
41922;DHT22;27609;51.002;5.354;2023-05-16T06:17:32;15.40;99.90
41922;DHT22;27609;51.002;5.354;2023-05-16T06:19:58;16.00;99.90
41922;DHT22;27609;51.002;5.354;2023-05-16T06:22:23;16.60;99.90
41922;DHT22;27609;51.002;5.354;2023-05-16T06:24:49;17.20;99.90
41922;DHT22;27609;51.002;5.354;2023-05-16T06:27:15;17.40;99.90
41922;DHT22;27609;51.002;5.354;2023-05-16T06:29:41;17.40;99.90
41922;DHT22;27609;51.002;5.354;2023-05-16T06:32:06;17.40;99.90
41922;DHT22;27609;51.002;5.354;2023-05-16T06:34:32;17.50;99.90
41922;DHT22;27609;51.002;5.354;2023-05-16T06:36:58;18.40;99.90
41922;DHT22;27609;51.002;5.354;2023-05-16T06:39:24;18.80;99.90
41922;DHT22;27609;51.002;5.354;2023-05-16T06:41:50;19.30;99.90
41922;DHT22;27609;51.002;5.354;2023-05-16T06:44:16;19.70;99.90
41922;DHT22;27609;51.002;5.354;2023-05-16T06:46:41;19.20;99.90
41922;DHT22;27609;51.002;5.354;2023-05-16T06:49:07;19.50;99.90
41922;DHT22;27609;51.002;5.354;2023-05-16T06:51:33;19.80;99.90
41922;DHT22;27609;51.002;5.354;2023-05-16T06:53:59;20.40;99.90
41922;DHT22;27609;51.002;5.354;2023-05-16T06:56:24;20.80;99.90
41922;DHT22;27609;51.002;5.354;2023-05-16T06:58:50;21.30;99.90
41922;DHT22;27609;51.002;5.354;2023-05-16T07:01:16;21.00;99.90
41922;DHT22;27609;51.002;5.354;2023-05-16T07:03:41;21.00;99.90
41922;DHT22;27609;51.002;5.354;2023-05-16T07:06:07;21.10;99.90
41922;DHT22;27609;51.002;5.354;2023-05-16T07:08:33;21.70;99.90
41922;DHT22;27609;51.002;5.354;2023-05-16T07:11:01;21.30;99.90
41922;DHT22;27609;51.002;5.354;2023-05-16T07:13:27;21.50;99.90
41922;DHT22;27609;51.002;5.354;2023-05-16T07:15:52;21.40;99.90
41922;DHT22;27609;51.002;5.354;2023-05-16T07:18:18;21.90;99.90
41922;DHT22;27609;51.002;5.354;2023-05-16T07:20:44;21.70;99.80
41922;DHT22;27609;51.002;5.354;2023-05-16T07:23:10;20.70;99.90
41922;DHT22;27609;51.002;5.354;2023-05-16T07:25:36;19.70;99.90
41922;DHT22;27609;51.002;5.354;2023-05-16T07:28:02;18.80;99.90
41922;DHT22;27609;51.002;5.354;2023-05-16T07:30:27;18.60;99.90
41922;DHT22;27609;51.002;5.354;2023-05-16T07:32:53;19.00;99.90
41922;DHT22;27609;51.002;5.354;2023-05-16T07:35:19;19.30;99.90
41922;DHT22;27609;51.002;5.354;2023-05-16T07:37:45;19.20;99.90
41922;DHT22;27609;51.002;5.354;2023-05-16T07:40:11;18.80;99.90
41922;DHT22;27609;51.002;5.354;2023-05-16T07:42:37;18.00;99.90
41922;DHT22;27609;51.002;5.354;2023-05-16T07:45:04;17.00;99.90
41922;DHT22;27609;51.002;5.354;2023-05-16T07:47:31;17.80;99.90
41922;DHT22;27609;51.002;5.354;2023-05-16T07:49:56;19.70;99.90
41922;DHT22;27609;51.002;5.354;2023-05-16T07:52:22;20.30;99.90
41922;DHT22;27609;51.002;5.354;2023-05-16T07:54:48;20.60;98.70
41922;DHT22;27609;51.002;5.354;2023-05-16T07:57:14;20.30;99.90
41922;DHT22;27609;51.002;5.354;2023-05-16T07:59:40;19.50;99.90
41922;DHT22;27609;51.002;5.354;2023-05-16T08:02:06;18.60;99.90
41922;DHT22;27609;51.002;5.354;2023-05-16T08:04:31;17.90;99.90
41922;DHT22;27609;51.002;5.354;2023-05-16T08:06:57;17.70;99.90
41922;DHT22;27609;51.002;5.354;2023-05-16T08:09:23;17.60;99.90
41922;DHT22;27609;51.002;5.354;2023-05-16T08:11:48;16.90;99.90
41922;DHT22;27609;51.002;5.354;2023-05-16T08:14:14;16.60;99.90
41922;DHT22;27609;51.002;5.354;2023-05-16T08:16:40;17.90;99.90
41922;DHT22;27609;51.002;5.354;2023-05-16T08:19:06;17.90;99.90
41922;DHT22;27609;51.002;5.354;2023-05-16T08:21:32;18.10;99.90
41922;DHT22;27609;51.002;5.354;2023-05-16T08:23:58;18.40;99.90
41922;DHT22;27609;51.002;5.354;2023-05-16T08:26:23;18.70;99.90
41922;DHT22;27609;51.002;5.354;2023-05-16T08:28:50;19.60;99.90
41922;DHT22;27609;51.002;5.354;2023-05-16T08:31:16;19.60;99.90
41922;DHT22;27609;51.002;5.354;2023-05-16T08:33:42;19.40;99.90
41922;DHT22;27609;51.002;5.354;2023-05-16T08:36:11;20.30;99.90
41922;DHT22;27609;51.002;5.354;2023-05-16T08:38:37;22.60;98.40
41922;DHT22;27609;51.002;5.354;2023-05-16T08:41:03;21.50;96.80
41922;DHT22;27609;51.002;5.354;2023-05-16T08:43:28;20.40;99.90
41922;DHT22;27609;51.002;5.354;2023-05-16T08:45:54;19.80;98.90
41922;DHT22;27609;51.002;5.354;2023-05-16T08:48:23;19.60;99.90
41922;DHT22;27609;51.002;5.354;2023-05-16T08:50:48;20.70;98.60
41922;DHT22;27609;51.002;5.354;2023-05-16T08:53:20;22.80;98.10
41922;DHT22;27609;51.002;5.354;2023-05-16T08:55:47;23.70;92.40
41922;DHT22;27609;51.002;5.354;2023-05-16T08:58:13;23.80;95.10
41922;DHT22;27609;51.002;5.354;2023-05-16T09:00:39;23.30;94.20
41922;DHT22;27609;51.002;5.354;2023-05-16T09:03:05;22.30;94.70
41922;DHT22;27609;51.002;5.354;2023-05-16T09:05:32;21.20;94.30
41922;DHT22;27609;51.002;5.354;2023-05-16T09:07:58;21.40;95.80
41922;DHT22;27609;51.002;5.354;2023-05-16T09:10:24;23.10;94.90
41922;DHT22;27609;51.002;5.354;2023-05-16T09:12:50;24.20;91.60
41922;DHT22;27609;51.002;5.354;2023-05-16T09:15:17;24.10;90.90
41922;DHT22;27609;51.002;5.354;2023-05-16T09:17:44;24.80;88.30
41922;DHT22;27609;51.002;5.354;2023-05-16T09:20:15;27.30;79.80
41922;DHT22;27609;51.002;5.354;2023-05-16T09:22:55;27.20;82.20
41922;DHT22;27609;51.002;5.354;2023-05-16T09:25:23;28.10;80.50
41922;DHT22;27609;51.002;5.354;2023-05-16T09:27:55;28.90;73.80
41922;DHT22;27609;51.002;5.354;2023-05-16T09:30:26;29.20;75.70
41922;DHT22;27609;51.002;5.354;2023-05-16T09:32:52;27.00;78.70
41922;DHT22;27609;51.002;5.354;2023-05-16T09:35:19;26.40;80.20
41922;DHT22;27609;51.002;5.354;2023-05-16T09:37:49;26.20;74.40
41922;DHT22;27609;51.002;5.354;2023-05-16T09:40:19;24.50;79.70
41922;DHT22;27609;51.002;5.354;2023-05-16T09:42:45;23.40;81.90
41922;DHT22;27609;51.002;5.354;2023-05-16T09:45:12;22.10;84.50
41922;DHT22;27609;51.002;5.354;2023-05-16T09:47:38;20.80;88.70
41922;DHT22;27609;51.002;5.354;2023-05-16T09:50:13;20.30;91.20
41922;DHT22;27609;51.002;5.354;2023-05-16T09:52:40;20.20;90.70
41922;DHT22;27609;51.002;5.354;2023-05-16T09:55:07;20.10;91.40
41922;DHT22;27609;51.002;5.354;2023-05-16T09:57:36;20.60;90.10
41922;DHT22;27609;51.002;5.354;2023-05-16T10:00:10;20.90;91.70
41922;DHT22;27609;51.002;5.354;2023-05-16T10:02:38;20.40;90.50
41922;DHT22;27609;51.002;5.354;2023-05-16T10:05:06;20.80;87.70
41922;DHT22;27609;51.002;5.354;2023-05-16T10:07:32;21.00;86.20
41922;DHT22;27609;51.002;5.354;2023-05-16T10:10:05;21.20;90.30
41922;DHT22;27609;51.002;5.354;2023-05-16T10:12:32;21.70;89.40
41922;DHT22;27609;51.002;5.354;2023-05-16T10:15:03;22.20;89.10
41922;DHT22;27609;51.002;5.354;2023-05-16T10:17:33;22.60;85.00
41922;DHT22;27609;51.002;5.354;2023-05-16T10:20:05;22.70;85.50
41922;DHT22;27609;51.002;5.354;2023-05-16T10:22:36;23.00;89.70
41922;DHT22;27609;51.002;5.354;2023-05-16T10:27:31;23.30;88.30
41922;DHT22;27609;51.002;5.354;2023-05-16T10:29:58;22.40;87.90
41922;DHT22;27609;51.002;5.354;2023-05-16T10:32:25;21.60;89.50
41922;DHT22;27609;51.002;5.354;2023-05-16T10:34:52;20.90;91.20
41922;DHT22;27609;51.002;5.354;2023-05-16T10:37:20;21.80;91.00
41922;DHT22;27609;51.002;5.354;2023-05-16T10:39:47;23.80;89.50
41922;DHT22;27609;51.002;5.354;2023-05-16T10:42:13;25.40;82.60
41922;DHT22;27609;51.002;5.354;2023-05-16T10:44:42;28.60;77.60
41922;DHT22;27609;51.002;5.354;2023-05-16T10:47:08;29.80;73.10
41922;DHT22;27609;51.002;5.354;2023-05-16T10:49:34;25.90;74.10
41922;DHT22;27609;51.002;5.354;2023-05-16T10:52:08;27.60;71.30
41922;DHT22;27609;51.002;5.354;2023-05-16T10:54:41;26.70;72.60
41922;DHT22;27609;51.002;5.354;2023-05-16T10:57:15;25.20;74.70
41922;DHT22;27609;51.002;5.354;2023-05-16T10:59:44;24.30;73.50
41922;DHT22;27609;51.002;5.354;2023-05-16T11:02:25;22.80;83.20
41922;DHT22;27609;51.002;5.354;2023-05-16T11:04:54;21.50;87.70
41922;DHT22;27609;51.002;5.354;2023-05-16T11:07:22;20.90;89.50
41922;DHT22;27609;51.002;5.354;2023-05-16T11:10:13;20.20;89.90
41922;DHT22;27609;51.002;5.354;2023-05-16T11:12:49;20.30;90.70
41922;DHT22;27609;51.002;5.354;2023-05-16T11:15:22;20.50;90.00
41922;DHT22;27609;51.002;5.354;2023-05-16T11:17:48;21.90;87.40
41922;DHT22;27609;51.002;5.354;2023-05-16T11:20:31;24.90;78.60
41922;DHT22;27609;51.002;5.354;2023-05-16T11:23:19;28.20;72.20
41922;DHT22;27609;51.002;5.354;2023-05-16T11:25:47;30.30;68.30
41922;DHT22;27609;51.002;5.354;2023-05-16T11:28:16;29.70;69.10
41922;DHT22;27609;51.002;5.354;2023-05-16T11:30:43;31.70;60.70
41922;DHT22;27609;51.002;5.354;2023-05-16T11:33:10;29.90;63.70
41922;DHT22;27609;51.002;5.354;2023-05-16T11:35:37;27.30;64.80
41922;DHT22;27609;51.002;5.354;2023-05-16T11:38:03;25.30;71.00
41922;DHT22;27609;51.002;5.354;2023-05-16T11:40:29;23.70;73.90
41922;DHT22;27609;51.002;5.354;2023-05-16T11:42:59;23.70;76.90
41922;DHT22;27609;51.002;5.354;2023-05-16T11:45:24;25.50;72.20
41922;DHT22;27609;51.002;5.354;2023-05-16T11:47:51;26.90;69.70
41922;DHT22;27609;51.002;5.354;2023-05-16T11:50:18;25.10;69.10
41922;DHT22;27609;51.002;5.354;2023-05-16T11:52:50;23.00;72.60
41922;DHT22;27609;51.002;5.354;2023-05-16T11:55:20;21.70;75.90
41922;DHT22;27609;51.002;5.354;2023-05-16T11:57:50;21.10;77.50
41922;DHT22;27609;51.002;5.354;2023-05-16T12:00:20;21.90;74.10
41922;DHT22;27609;51.002;5.354;2023-05-16T12:02:48;24.80;76.40
41922;DHT22;27609;51.002;5.354;2023-05-16T12:05:17;29.00;61.30
41922;DHT22;27609;51.002;5.354;2023-05-16T12:07:45;30.50;65.10
41922;DHT22;27609;51.002;5.354;2023-05-16T12:10:13;29.20;59.30
41922;DHT22;27609;51.002;5.354;2023-05-16T12:12:47;30.40;59.30
41922;DHT22;27609;51.002;5.354;2023-05-16T12:15:14;31.60;62.40
41922;DHT22;27609;51.002;5.354;2023-05-16T12:17:40;31.20;58.60
41922;DHT22;27609;51.002;5.354;2023-05-16T12:20:09;29.20;60.10
41922;DHT22;27609;51.002;5.354;2023-05-16T12:22:40;27.30;66.00
41922;DHT22;27609;51.002;5.354;2023-05-16T12:25:28;25.40;68.30
41922;DHT22;27609;51.002;5.354;2023-05-16T12:27:58;24.40;69.90
41922;DHT22;27609;51.002;5.354;2023-05-16T12:30:25;24.30;70.20
41922;DHT22;27609;51.002;5.354;2023-05-16T12:32:56;24.30;70.90
41922;DHT22;27609;51.002;5.354;2023-05-16T12:35:23;25.50;69.50
41922;DHT22;27609;51.002;5.354;2023-05-16T12:37:49;26.40;67.10
41922;DHT22;27609;51.002;5.354;2023-05-16T12:40:16;26.00;65.20
41922;DHT22;27609;51.002;5.354;2023-05-16T12:42:49;25.00;66.00
41922;DHT22;27609;51.002;5.354;2023-05-16T12:45:16;24.00;69.50
41922;DHT22;27609;51.002;5.354;2023-05-16T12:47:42;23.10;72.60
41922;DHT22;27609;51.002;5.354;2023-05-16T12:50:10;22.40;75.30
41922;DHT22;27609;51.002;5.354;2023-05-16T12:52:49;24.00;74.40
41922;DHT22;27609;51.002;5.354;2023-05-16T12:55:20;25.80;66.70
41922;DHT22;27609;51.002;5.354;2023-05-16T12:57:47;25.90;67.20
41922;DHT22;27609;51.002;5.354;2023-05-16T13:00:14;26.00;67.20
41922;DHT22;27609;51.002;5.354;2023-05-16T13:02:40;24.90;70.50
41922;DHT22;27609;51.002;5.354;2023-05-16T13:05:06;23.60;72.00
41922;DHT22;27609;51.002;5.354;2023-05-16T13:07:33;22.50;74.50
41922;DHT22;27609;51.002;5.354;2023-05-16T13:09:59;22.30;76.70
41922;DHT22;27609;51.002;5.354;2023-05-16T13:12:25;22.70;75.80
41922;DHT22;27609;51.002;5.354;2023-05-16T13:14:55;23.40;74.40
41922;DHT22;27609;51.002;5.354;2023-05-16T13:17:21;23.90;75.50
41922;DHT22;27609;51.002;5.354;2023-05-16T13:19:48;24.20;73.50
41922;DHT22;27609;51.002;5.354;2023-05-16T13:22:14;24.40;73.50
41922;DHT22;27609;51.002;5.354;2023-05-16T13:24:40;23.50;73.00
41922;DHT22;27609;51.002;5.354;2023-05-16T13:27:05;22.70;71.40
41922;DHT22;27609;51.002;5.354;2023-05-16T13:29:31;22.10;75.10
41922;DHT22;27609;51.002;5.354;2023-05-16T13:31:57;21.80;75.80
41922;DHT22;27609;51.002;5.354;2023-05-16T13:34:23;21.60;77.90
41922;DHT22;27609;51.002;5.354;2023-05-16T13:36:49;21.80;78.00
41922;DHT22;27609;51.002;5.354;2023-05-16T13:39:15;22.80;79.50
41922;DHT22;27609;51.002;5.354;2023-05-16T13:41:40;23.10;70.60
41922;DHT22;27609;51.002;5.354;2023-05-16T13:44:07;23.00;75.40
41922;DHT22;27609;51.002;5.354;2023-05-16T13:46:33;22.50;76.40
41922;DHT22;27609;51.002;5.354;2023-05-16T13:48:58;22.00;75.20
41922;DHT22;27609;51.002;5.354;2023-05-16T13:51:24;21.70;75.10
41922;DHT22;27609;51.002;5.354;2023-05-16T13:53:50;21.60;77.90
41922;DHT22;27609;51.002;5.354;2023-05-16T13:56:16;21.80;80.30
41922;DHT22;27609;51.002;5.354;2023-05-16T13:58:42;21.50;80.00
41922;DHT22;27609;51.002;5.354;2023-05-16T14:01:08;21.10;80.40
41922;DHT22;27609;51.002;5.354;2023-05-16T14:03:33;20.50;79.30
41922;DHT22;27609;51.002;5.354;2023-05-16T14:06:01;20.20;78.30
41922;DHT22;27609;51.002;5.354;2023-05-16T14:08:27;20.20;81.80
41922;DHT22;27609;51.002;5.354;2023-05-16T14:10:53;20.30;81.10
41922;DHT22;27609;51.002;5.354;2023-05-16T14:13:19;20.50;82.70
41922;DHT22;27609;51.002;5.354;2023-05-16T14:15:45;20.60;81.20
41922;DHT22;27609;51.002;5.354;2023-05-16T14:18:11;20.40;81.50
41922;DHT22;27609;51.002;5.354;2023-05-16T14:20:37;20.10;81.10
41922;DHT22;27609;51.002;5.354;2023-05-16T14:23:03;20.10;82.40
41922;DHT22;27609;51.002;5.354;2023-05-16T14:25:29;19.60;82.40
41922;DHT22;27609;51.002;5.354;2023-05-16T14:27:54;19.80;84.10
41922;DHT22;27609;51.002;5.354;2023-05-16T14:30:20;19.90;80.30
41922;DHT22;27609;51.002;5.354;2023-05-16T14:32:46;20.30;83.50
41922;DHT22;27609;51.002;5.354;2023-05-16T14:35:12;20.80;78.00
41922;DHT22;27609;51.002;5.354;2023-05-16T14:37:38;20.90;79.60
41922;DHT22;27609;51.002;5.354;2023-05-16T14:40:04;20.80;82.20
41922;DHT22;27609;51.002;5.354;2023-05-16T14:42:30;21.00;80.70
41922;DHT22;27609;51.002;5.354;2023-05-16T14:44:56;21.00;81.00
41922;DHT22;27609;51.002;5.354;2023-05-16T14:47:22;21.00;75.70
41922;DHT22;27609;51.002;5.354;2023-05-16T14:49:48;20.70;79.30
41922;DHT22;27609;51.002;5.354;2023-05-16T14:52:14;20.40;81.20
41922;DHT22;27609;51.002;5.354;2023-05-16T14:54:40;20.30;81.60
41922;DHT22;27609;51.002;5.354;2023-05-16T14:57:06;20.20;84.00
41922;DHT22;27609;51.002;5.354;2023-05-16T14:59:32;20.10;83.90
41922;DHT22;27609;51.002;5.354;2023-05-16T15:01:57;20.10;82.90
41922;DHT22;27609;51.002;5.354;2023-05-16T15:04:25;20.00;79.60
41922;DHT22;27609;51.002;5.354;2023-05-16T15:06:51;20.00;83.10
41922;DHT22;27609;51.002;5.354;2023-05-16T15:09:16;20.00;82.70
41922;DHT22;27609;51.002;5.354;2023-05-16T15:11:43;19.50;86.00
41922;DHT22;27609;51.002;5.354;2023-05-16T15:14:09;19.20;85.20
41922;DHT22;27609;51.002;5.354;2023-05-16T15:16:35;18.90;82.50
41922;DHT22;27609;51.002;5.354;2023-05-16T15:19:00;18.40;82.60
41922;DHT22;27609;51.002;5.354;2023-05-16T15:21:26;18.50;86.40
41922;DHT22;27609;51.002;5.354;2023-05-16T15:23:52;18.40;89.10
41922;DHT22;27609;51.002;5.354;2023-05-16T15:26:19;18.50;88.80
41922;DHT22;27609;51.002;5.354;2023-05-16T15:28:47;18.50;88.40
41922;DHT22;27609;51.002;5.354;2023-05-16T15:31:12;18.60;89.10
41922;DHT22;27609;51.002;5.354;2023-05-16T15:33:38;18.50;90.60
41922;DHT22;27609;51.002;5.354;2023-05-16T15:36:04;18.60;90.60
41922;DHT22;27609;51.002;5.354;2023-05-16T15:38:30;18.50;89.60
41922;DHT22;27609;51.002;5.354;2023-05-16T15:40:56;18.30;90.30
41922;DHT22;27609;51.002;5.354;2023-05-16T15:43:22;18.20;90.70
41922;DHT22;27609;51.002;5.354;2023-05-16T15:45:48;18.40;91.30
41922;DHT22;27609;51.002;5.354;2023-05-16T15:48:14;18.20;91.90